SWA2026 PHNL-KOAK
Flight info
| Callsign | SWA2026 |
|---|---|
| Flight time | N/A |
| Altitude | 35000 |
| Route | MKK5 KOLEA CLUTS R465 CINNY PIRAT3 |
| Aircraft | B38M/M-SADE2E3GHIJ4J7M3P2RWZ/LB1D1 |
Departure
| Time | N/A |
|---|---|
| Airport | Daniel K. Inouye International Airport (PHNL) |
Arrival
| Time | 2026-05-05 15:02 |
|---|---|
| Airport | San Francisco Bay Oakland International Airport (KOAK) |
| Time | Latitude | Longitude | Altitude | Speed | Heading |
|---|---|---|---|---|---|
| 2026-05-05 13:54 | 34.74593 | -129.35083 | 35153 ft | 441 kts | 66° |
| 2026-05-05 13:54 | 34.75703 | -129.31609 | 35152 ft | 438 kts | 66° |
| 2026-05-05 13:55 | 34.77902 | -129.24721 | 35143 ft | 436 kts | 66° |
| 2026-05-05 13:55 | 34.80094 | -129.17836 | 35143 ft | 436 kts | 66° |
| 2026-05-05 13:56 | 34.82282 | -129.10949 | 35153 ft | 436 kts | 67° |
| 2026-05-05 13:56 | 34.84439 | -129.04145 | 35143 ft | 432 kts | 67° |
| 2026-05-05 13:57 | 34.86598 | -128.97319 | 35138 ft | 432 kts | 67° |
| 2026-05-05 13:57 | 34.88757 | -128.90476 | 35135 ft | 432 kts | 67° |
| 2026-05-05 13:58 | 34.90900 | -128.83667 | 35146 ft | 427 kts | 67° |
| 2026-05-05 13:58 | 34.93007 | -128.76960 | 35138 ft | 426 kts | 67° |
| 2026-05-05 13:59 | 34.96178 | -128.66834 | 35136 ft | 426 kts | 68° |
| 2026-05-05 14:00 | 34.99328 | -128.56741 | 35134 ft | 422 kts | 68° |
| 2026-05-05 14:00 | 35.01414 | -128.50039 | 35137 ft | 422 kts | 68° |
| 2026-05-05 14:01 | 35.03498 | -128.43329 | 35130 ft | 422 kts | 68° |
| 2026-05-05 14:01 | 35.05576 | -128.36622 | 35125 ft | 422 kts | 68° |
| 2026-05-05 14:02 | 35.07650 | -128.29910 | 35125 ft | 422 kts | 68° |
| 2026-05-05 14:02 | 35.09722 | -128.23193 | 35125 ft | 422 kts | 68° |
| 2026-05-05 14:03 | 35.11775 | -128.16518 | 35138 ft | 421 kts | 68° |
| 2026-05-05 14:03 | 35.13822 | -128.09853 | 35128 ft | 418 kts | 68° |
| 2026-05-05 14:04 | 35.15864 | -128.03184 | 35120 ft | 419 kts | 68° |
| 2026-05-05 14:04 | 35.17901 | -127.96520 | 35122 ft | 419 kts | 68° |
| 2026-05-05 14:05 | 35.19932 | -127.89859 | 35117 ft | 417 kts | 68° |
| 2026-05-05 14:05 | 35.21952 | -127.83217 | 35122 ft | 417 kts | 68° |
| 2026-05-05 14:06 | 35.23970 | -127.76566 | 35118 ft | 416 kts | 68° |
| 2026-05-05 14:06 | 35.25971 | -127.69959 | 35128 ft | 416 kts | 68° |
| 2026-05-05 14:07 | 35.27973 | -127.63332 | 35114 ft | 414 kts | 68° |
| 2026-05-05 14:07 | 35.29972 | -127.56702 | 35112 ft | 417 kts | 68° |
| 2026-05-05 14:08 | 35.31983 | -127.50014 | 35114 ft | 419 kts | 68° |
| 2026-05-05 14:08 | 35.33994 | -127.43310 | 35118 ft | 417 kts | 68° |
| 2026-05-05 14:09 | 35.35988 | -127.36647 | 35111 ft | 416 kts | 68° |
| 2026-05-05 14:09 | 35.37977 | -127.29987 | 35111 ft | 416 kts | 68° |
| 2026-05-05 14:10 | 35.39963 | -127.23322 | 35120 ft | 416 kts | 68° |
| 2026-05-05 14:10 | 35.41931 | -127.16700 | 35111 ft | 415 kts | 68° |
| 2026-05-05 14:11 | 35.43900 | -127.10058 | 35105 ft | 415 kts | 68° |
| 2026-05-05 14:11 | 35.45868 | -127.03406 | 35105 ft | 415 kts | 68° |
| 2026-05-05 14:12 | 35.47834 | -126.96747 | 35115 ft | 414 kts | 68° |
| 2026-05-05 14:12 | 35.49788 | -126.90109 | 35100 ft | 413 kts | 68° |
| 2026-05-05 14:13 | 35.51728 | -126.83509 | 35102 ft | 413 kts | 68° |
| 2026-05-05 14:13 | 35.53676 | -126.76867 | 35102 ft | 413 kts | 68° |
| 2026-05-05 14:14 | 35.55621 | -126.70222 | 35102 ft | 412 kts | 68° |
| 2026-05-05 14:14 | 35.57555 | -126.63598 | 35098 ft | 412 kts | 68° |
| 2026-05-05 14:15 | 35.59490 | -126.56957 | 35099 ft | 412 kts | 68° |
| 2026-05-05 14:15 | 35.61403 | -126.50372 | 35096 ft | 412 kts | 68° |
| 2026-05-05 14:16 | 35.63327 | -126.43739 | 35094 ft | 411 kts | 68° |
| 2026-05-05 14:16 | 35.65245 | -126.37109 | 35095 ft | 412 kts | 68° |
| 2026-05-05 14:17 | 35.67162 | -126.30468 | 35091 ft | 412 kts | 68° |
| 2026-05-05 14:17 | 35.69074 | -126.23829 | 35108 ft | 412 kts | 68° |
| 2026-05-05 14:18 | 35.70978 | -126.17203 | 35094 ft | 410 kts | 68° |
| 2026-05-05 14:18 | 35.72877 | -126.10584 | 35094 ft | 410 kts | 68° |
| 2026-05-05 14:19 | 35.75076 | -126.04187 | 35095 ft | 409 kts | 65° |
| 2026-05-05 14:19 | 35.77295 | -125.97730 | 35092 ft | 409 kts | 65° |
| 2026-05-05 14:20 | 35.79508 | -125.91266 | 35091 ft | 409 kts | 65° |
| 2026-05-05 14:20 | 35.81716 | -125.84798 | 35089 ft | 409 kts | 65° |
| 2026-05-05 14:21 | 35.83923 | -125.78322 | 35089 ft | 409 kts | 65° |
| 2026-05-05 14:21 | 35.86122 | -125.71853 | 35097 ft | 409 kts | 65° |
| 2026-05-05 14:22 | 35.88300 | -125.65434 | 35089 ft | 408 kts | 65° |
| 2026-05-05 14:22 | 35.90488 | -125.58972 | 35089 ft | 408 kts | 65° |
| 2026-05-05 14:23 | 35.92672 | -125.52507 | 35083 ft | 408 kts | 65° |
| 2026-05-05 14:23 | 35.94853 | -125.46038 | 35088 ft | 407 kts | 65° |
| 2026-05-05 14:24 | 35.97023 | -125.39585 | 35082 ft | 407 kts | 65° |
| 2026-05-05 14:24 | 35.99179 | -125.33162 | 35075 ft | 407 kts | 65° |
| 2026-05-05 14:25 | 36.01345 | -125.26697 | 35087 ft | 407 kts | 65° |
| 2026-05-05 14:25 | 36.03505 | -125.20236 | 35090 ft | 406 kts | 65° |
| 2026-05-05 14:26 | 36.05655 | -125.13788 | 35074 ft | 405 kts | 65° |
| 2026-05-05 14:26 | 36.07800 | -125.07343 | 35079 ft | 405 kts | 65° |
| 2026-05-05 14:27 | 36.09930 | -125.00928 | 35078 ft | 406 kts | 65° |
| 2026-05-05 14:27 | 36.12069 | -124.94473 | 35081 ft | 405 kts | 65° |
| 2026-05-05 14:28 | 36.14201 | -124.88028 | 35080 ft | 404 kts | 65° |
| 2026-05-05 14:28 | 36.16328 | -124.81585 | 35073 ft | 404 kts | 65° |
| 2026-05-05 14:29 | 36.18709 | -124.75309 | 35061 ft | 400 kts | 52° |
| 2026-05-05 14:29 | 36.22105 | -124.69886 | 35065 ft | 401 kts | 52° |
| 2026-05-05 14:30 | 36.25533 | -124.64435 | 35072 ft | 401 kts | 51° |
| 2026-05-05 14:30 | 36.28974 | -124.59005 | 35074 ft | 401 kts | 51° |
| 2026-05-05 14:31 | 36.32421 | -124.53566 | 35072 ft | 401 kts | 51° |
| 2026-05-05 14:31 | 36.35281 | -124.49047 | 34901 ft | 401 kts | 51° |
| 2026-05-05 14:32 | 36.36999 | -124.46330 | 34708 ft | 399 kts | 51° |
| 2026-05-05 14:32 | 36.38703 | -124.43632 | 34497 ft | 396 kts | 51° |
| 2026-05-05 14:32 | 36.40402 | -124.40940 | 34297 ft | 395 kts | 51° |
| 2026-05-05 14:32 | 36.42093 | -124.38259 | 34098 ft | 394 kts | 51° |
| 2026-05-05 14:33 | 36.43782 | -124.35579 | 33872 ft | 393 kts | 51° |
| 2026-05-05 14:33 | 36.45467 | -124.32903 | 33634 ft | 394 kts | 51° |
| 2026-05-05 14:33 | 36.47156 | -124.30219 | 33402 ft | 395 kts | 51° |
| 2026-05-05 14:33 | 36.48851 | -124.27522 | 33182 ft | 395 kts | 51° |
| 2026-05-05 14:34 | 36.50541 | -124.24833 | 32937 ft | 394 kts | 51° |
| 2026-05-05 14:34 | 36.52224 | -124.22151 | 32708 ft | 394 kts | 51° |
| 2026-05-05 14:34 | 36.53887 | -124.19501 | 32503 ft | 392 kts | 51° |
| 2026-05-05 14:34 | 36.55560 | -124.16831 | 32279 ft | 391 kts | 51° |
| 2026-05-05 14:35 | 36.57230 | -124.14165 | 32055 ft | 389 kts | 51° |
| 2026-05-05 14:35 | 36.58875 | -124.11535 | 31595 ft | 382 kts | 51° |
| 2026-05-05 14:35 | 36.60508 | -124.08924 | 30934 ft | 382 kts | 50° |
| 2026-05-05 14:35 | 36.62140 | -124.06312 | 30317 ft | 382 kts | 50° |
| 2026-05-05 14:36 | 36.63765 | -124.03709 | 29754 ft | 379 kts | 50° |
| 2026-05-05 14:36 | 36.65375 | -124.01127 | 29258 ft | 374 kts | 50° |
| 2026-05-05 14:36 | 36.66964 | -123.98577 | 28778 ft | 370 kts | 50° |
| 2026-05-05 14:36 | 36.68531 | -123.96061 | 28307 ft | 365 kts | 50° |
| 2026-05-05 14:37 | 36.70079 | -123.93574 | 27854 ft | 362 kts | 50° |
| 2026-05-05 14:37 | 36.71613 | -123.91108 | 27383 ft | 358 kts | 50° |
| 2026-05-05 14:37 | 36.73134 | -123.88661 | 26922 ft | 355 kts | 50° |
| 2026-05-05 14:37 | 36.74656 | -123.86211 | 26464 ft | 359 kts | 50° |
| 2026-05-05 14:38 | 36.76188 | -123.83741 | 25995 ft | 363 kts | 50° |
| 2026-05-05 14:38 | 36.77735 | -123.81246 | 25537 ft | 364 kts | 50° |
| 2026-05-05 14:38 | 36.79282 | -123.78751 | 25082 ft | 363 kts | 50° |
| 2026-05-05 14:38 | 36.80820 | -123.76267 | 24630 ft | 361 kts | 50° |
| 2026-05-05 14:39 | 36.82333 | -123.73821 | 24193 ft | 359 kts | 50° |
| 2026-05-05 14:39 | 36.83854 | -123.71361 | 23757 ft | 357 kts | 50° |
| 2026-05-05 14:39 | 36.85370 | -123.68909 | 23271 ft | 356 kts | 50° |
| 2026-05-05 14:39 | 36.86876 | -123.66469 | 22811 ft | 354 kts | 50° |
| 2026-05-05 14:40 | 36.88376 | -123.64040 | 22366 ft | 352 kts | 50° |
| 2026-05-05 14:40 | 36.89863 | -123.61628 | 21948 ft | 350 kts | 50° |
| 2026-05-05 14:40 | 36.91349 | -123.59218 | 21538 ft | 349 kts | 50° |
| 2026-05-05 14:40 | 36.92824 | -123.56820 | 21047 ft | 348 kts | 50° |
| 2026-05-05 14:41 | 36.94292 | -123.54430 | 20611 ft | 346 kts | 50° |
| 2026-05-05 14:41 | 36.95748 | -123.52058 | 20237 ft | 343 kts | 50° |
| 2026-05-05 14:41 | 36.97205 | -123.49684 | 19865 ft | 344 kts | 50° |
| 2026-05-05 14:41 | 36.98665 | -123.47304 | 19488 ft | 343 kts | 49° |
| 2026-05-05 14:42 | 37.00118 | -123.44933 | 19109 ft | 342 kts | 49° |
| 2026-05-05 14:42 | 37.01564 | -123.42573 | 18735 ft | 341 kts | 49° |
| 2026-05-05 14:42 | 37.02986 | -123.40250 | 18364 ft | 340 kts | 49° |
| 2026-05-05 14:42 | 37.04440 | -123.37872 | 17936 ft | 339 kts | 49° |
| 2026-05-05 14:43 | 37.05849 | -123.35567 | 17541 ft | 336 kts | 49° |
| 2026-05-05 14:43 | 37.07269 | -123.33241 | 17142 ft | 334 kts | 49° |
| 2026-05-05 14:43 | 37.08671 | -123.30945 | 16766 ft | 330 kts | 49° |
| 2026-05-05 14:43 | 37.10058 | -123.28671 | 16414 ft | 326 kts | 49° |
| 2026-05-05 14:44 | 37.11430 | -123.26420 | 16045 ft | 324 kts | 49° |
| 2026-05-05 14:44 | 37.12798 | -123.24175 | 15688 ft | 324 kts | 49° |
| 2026-05-05 14:44 | 37.14163 | -123.21932 | 15331 ft | 322 kts | 49° |
| 2026-05-05 14:44 | 37.15516 | -123.19707 | 14961 ft | 320 kts | 50° |
| 2026-05-05 14:45 | 37.16852 | -123.17511 | 14715 ft | 313 kts | 49° |
| 2026-05-05 14:45 | 37.18137 | -123.15396 | 14506 ft | 305 kts | 50° |
| 2026-05-05 14:45 | 37.19332 | -123.13208 | 14161 ft | 306 kts | 61° |
| 2026-05-05 14:45 | 37.19996 | -123.10664 | 13807 ft | 307 kts | 69° |
| 2026-05-05 14:46 | 37.20610 | -123.08127 | 13390 ft | 305 kts | 68° |
| 2026-05-05 14:46 | 37.21220 | -123.05583 | 12963 ft | 304 kts | 69° |
| 2026-05-05 14:46 | 37.21824 | -123.03047 | 12551 ft | 303 kts | 69° |
| 2026-05-05 14:46 | 37.22424 | -123.00513 | 12153 ft | 301 kts | 69° |
| 2026-05-05 14:47 | 37.23018 | -122.98000 | 11748 ft | 300 kts | 69° |
| 2026-05-05 14:47 | 37.23612 | -122.95486 | 11361 ft | 299 kts | 69° |
| 2026-05-05 14:47 | 37.24201 | -122.92986 | 10977 ft | 298 kts | 69° |
| 2026-05-05 14:47 | 37.24788 | -122.90489 | 10598 ft | 297 kts | 69° |
| 2026-05-05 14:48 | 37.25371 | -122.88009 | 10250 ft | 295 kts | 69° |
| 2026-05-05 14:48 | 37.25946 | -122.85560 | 10059 ft | 288 kts | 69° |
| 2026-05-05 14:48 | 37.26503 | -122.83187 | 9974 ft | 279 kts | 69° |
| 2026-05-05 14:48 | 37.27041 | -122.80890 | 9840 ft | 270 kts | 69° |
| 2026-05-05 14:49 | 37.27561 | -122.78663 | 9485 ft | 269 kts | 69° |
| 2026-05-05 14:49 | 37.28084 | -122.76424 | 9308 ft | 261 kts | 69° |
| 2026-05-05 14:49 | 37.28590 | -122.74259 | 9307 ft | 258 kts | 69° |
| 2026-05-05 14:49 | 37.29097 | -122.72088 | 9323 ft | 259 kts | 69° |
| 2026-05-05 14:50 | 37.29604 | -122.69912 | 9319 ft | 260 kts | 69° |
| 2026-05-05 14:50 | 37.30110 | -122.67740 | 9309 ft | 259 kts | 69° |
| 2026-05-05 14:50 | 37.30616 | -122.65565 | 9298 ft | 259 kts | 69° |
| 2026-05-05 14:50 | 37.31122 | -122.63387 | 9246 ft | 259 kts | 69° |
| 2026-05-05 14:51 | 37.31626 | -122.61217 | 9198 ft | 259 kts | 69° |
| 2026-05-05 14:51 | 37.32130 | -122.59046 | 9132 ft | 259 kts | 69° |
| 2026-05-05 14:51 | 37.32634 | -122.56865 | 9055 ft | 260 kts | 69° |
| 2026-05-05 14:51 | 37.33132 | -122.54716 | 8988 ft | 259 kts | 69° |
| 2026-05-05 14:52 | 37.33641 | -122.52513 | 8920 ft | 259 kts | 69° |
| 2026-05-05 14:52 | 37.34145 | -122.50335 | 8857 ft | 260 kts | 69° |
| 2026-05-05 14:52 | 37.34643 | -122.48181 | 8784 ft | 260 kts | 69° |
| 2026-05-05 14:52 | 37.35144 | -122.46006 | 8705 ft | 259 kts | 69° |
| 2026-05-05 14:53 | 37.35646 | -122.43825 | 8624 ft | 257 kts | 69° |
| 2026-05-05 14:53 | 37.36133 | -122.41712 | 8547 ft | 246 kts | 69° |
| 2026-05-05 14:53 | 37.36601 | -122.39676 | 8472 ft | 241 kts | 69° |
| 2026-05-05 14:53 | 37.37081 | -122.37589 | 8407 ft | 253 kts | 70° |
| 2026-05-05 14:54 | 37.37576 | -122.35436 | 8336 ft | 259 kts | 70° |
| 2026-05-05 14:54 | 37.38075 | -122.33262 | 8282 ft | 260 kts | 70° |
| 2026-05-05 14:54 | 37.38576 | -122.31069 | 8154 ft | 262 kts | 70° |
| 2026-05-05 14:54 | 37.39077 | -122.28885 | 8047 ft | 256 kts | 70° |
| 2026-05-05 14:55 | 37.39724 | -122.26840 | 7854 ft | 249 kts | 53° |
| 2026-05-05 14:55 | 37.40913 | -122.25290 | 7520 ft | 246 kts | 32° |
| 2026-05-05 14:55 | 37.42442 | -122.24413 | 7181 ft | 245 kts | 15° |
| 2026-05-05 14:55 | 37.44064 | -122.23754 | 6843 ft | 247 kts | 27° |
| 2026-05-05 14:56 | 37.45486 | -122.22512 | 6499 ft | 250 kts | 34° |
| 2026-05-05 14:56 | 37.46901 | -122.21221 | 6119 ft | 252 kts | 34° |
| 2026-05-05 14:56 | 37.48328 | -122.19924 | 5739 ft | 253 kts | 33° |
| 2026-05-05 14:56 | 37.49750 | -122.18631 | 5361 ft | 250 kts | 33° |
| 2026-05-05 14:57 | 37.51153 | -122.17355 | 5003 ft | 247 kts | 33° |
| 2026-05-05 14:57 | 37.52541 | -122.16092 | 4639 ft | 244 kts | 32° |
| 2026-05-05 14:57 | 37.53911 | -122.14845 | 4274 ft | 241 kts | 32° |
| 2026-05-05 14:57 | 37.55253 | -122.13622 | 3923 ft | 235 kts | 33° |
| 2026-05-05 14:58 | 37.56549 | -122.12440 | 3624 ft | 226 kts | 33° |
| 2026-05-05 14:58 | 37.57811 | -122.11291 | 3297 ft | 222 kts | 33° |
| 2026-05-05 14:58 | 37.59055 | -122.10161 | 2957 ft | 218 kts | 31° |
| 2026-05-05 14:58 | 37.60410 | -122.09504 | 2606 ft | 208 kts | 1° |
| 2026-05-05 14:59 | 37.61782 | -122.09830 | 2401 ft | 198 kts | 333° |
| 2026-05-05 14:59 | 37.62939 | -122.10723 | 2182 ft | 194 kts | 319° |
| 2026-05-05 14:59 | 37.63876 | -122.11917 | 1955 ft | 190 kts | 308° |
| 2026-05-05 14:59 | 37.64684 | -122.13223 | 1714 ft | 188 kts | 307° |
| 2026-05-05 15:00 | 37.65511 | -122.14482 | 1478 ft | 183 kts | 309° |
| 2026-05-05 15:00 | 37.66050 | -122.15281 | 1308 ft | 177 kts | 309° |
| 2026-05-05 15:00 | 37.67060 | -122.16796 | 1032 ft | 158 kts | 308° |
| 2026-05-05 15:00 | 37.67726 | -122.17795 | 837 ft | 140 kts | 308° |
| 2026-05-05 15:01 | 37.68349 | -122.18731 | 662 ft | 139 kts | 308° |
| 2026-05-05 15:01 | 37.68969 | -122.19661 | 439 ft | 138 kts | 308° |
| 2026-05-05 15:01 | 37.69582 | -122.20579 | 243 ft | 136 kts | 308° |
| 2026-05-05 15:01 | 37.70186 | -122.21486 | 55 ft | 134 kts | 307° |
| 2026-05-05 15:02 | 37.70755 | -122.22334 | 9 ft | 114 kts | 306° |
| 2026-05-05 15:02 | 37.71126 | -122.22893 | 9 ft | 53 kts | 310° |
| 2026-05-05 15:02 | 37.71292 | -122.23080 | 10 ft | 19 kts | 332° |
| 2026-05-05 15:02 | 37.71414 | -122.23142 | 9 ft | 15 kts | 342° |
| 2026-05-05 15:03 | 37.71505 | -122.23126 | 9 ft | 11 kts | 66° |
| 2026-05-05 15:03 | 37.71480 | -122.23046 | 11 ft | 10 kts | 130° |
| 2026-05-05 15:03 | 37.71434 | -122.22977 | 13 ft | 11 kts | 130° |
| 2026-05-05 15:03 | 37.71383 | -122.22900 | 14 ft | 13 kts | 130° |
| 2026-05-05 15:04 | 37.71317 | -122.22802 | 13 ft | 16 kts | 130° |
| 2026-05-05 15:04 | 37.71241 | -122.22688 | 14 ft | 12 kts | 130° |
| 2026-05-05 15:04 | 37.71226 | -122.22666 | 14 ft | 4 kts | 130° |
| 2026-05-05 15:04 | 37.71220 | -122.22656 | 14 ft | 1 kts | 130° |
| 2026-05-05 15:05 | 37.71211 | -122.22643 | 14 ft | 5 kts | 130° |
| 2026-05-05 15:06 | 37.71193 | -122.22587 | 12 ft | 9 kts | 92° |
| 2026-05-05 15:06 | 37.71228 | -122.22505 | 14 ft | 12 kts | 47° |
| 2026-05-05 15:06 | 37.71290 | -122.22419 | 14 ft | 14 kts | 49° |
| 2026-05-05 15:06 | 37.71352 | -122.22317 | 14 ft | 15 kts | 79° |
| 2026-05-05 15:07 | 37.71298 | -122.22199 | 14 ft | 17 kts | 132° |
| 2026-05-05 15:07 | 37.71218 | -122.22077 | 13 ft | 18 kts | 129° |
| 2026-05-05 15:07 | 37.71131 | -122.21949 | 14 ft | 20 kts | 129° |
| 2026-05-05 15:07 | 37.71061 | -122.21850 | 15 ft | 14 kts | 143° |
| 2026-05-05 15:08 | 37.70984 | -122.21758 | 15 ft | 17 kts | 127° |
| 2026-05-05 15:08 | 37.70917 | -122.21641 | 16 ft | 11 kts | 114° |
| 2026-05-05 15:08 | 37.70926 | -122.21546 | 15 ft | 6 kts | 48° |
| 2026-05-05 15:08 | 37.70965 | -122.21543 | 16 ft | 7 kts | 324° |
| 2026-05-05 15:09 | 37.70989 | -122.21565 | 16 ft | 2 kts | 325° |
| 2026-05-05 15:09 | 37.71008 | -122.21579 | 15 ft | 3 kts | 330° |
| 2026-05-05 15:09 | 37.71020 | -122.21588 | 15 ft | 1 kts | 331° |
| 2026-05-05 15:09 | 37.71023 | -122.21590 | 15 ft | 0 kts | 331° |